Time;durP1;ratioP1;P1;durP2;ratioP2;P2;SDS_P1;SDS_P2;PMS_P1;PMS_P2;Temp;Humidity;BMP_temperature;BMP_pressure;BME280_temperature;BME280_humidity;BME280_pressure;Samples;Min_cycle;Max_cycle;Signal;HPM_P1;HPM_P2
2021/11/06 00:00:43;;;;;;;6.05;2.55;;;8.20;99.90;;;;;;5043750;28;20045;-58
2021/11/06 00:03:10;;;;;;;5.43;2.63;;;8.20;99.90;;;;;;5040057;28;20041;-59
2021/11/06 00:05:36;;;;;;;6.50;2.97;;;8.30;99.90;;;;;;5045618;28;20042;-59
2021/11/06 00:08:02;;;;;;;7.50;3.22;;;8.30;99.90;;;;;;5047334;28;20073;-58
2021/11/06 00:10:29;;;;;;;6.70;2.85;;;8.30;99.90;;;;;;5042640;28;20060;-57
2021/11/06 00:12:56;;;;;;;9.15;3.17;;;8.40;99.90;;;;;;5025641;28;20138;-57
2021/11/06 00:15:22;;;;;;;5.45;2.58;;;8.40;99.90;;;;;;5042080;28;20064;-57
2021/11/06 00:17:48;;;;;;;9.43;3.20;;;8.40;99.90;;;;;;5042126;28;20049;-57
2021/11/06 00:20:15;;;;;;;9.43;3.45;;;8.40;99.90;;;;;;5045588;28;20091;-57
2021/11/06 00:22:42;;;;;;;9.52;2.67;;;8.40;99.90;;;;;;5047729;28;20151;-48
2021/11/06 00:25:10;;;;;;;8.80;3.20;;;8.50;99.90;;;;;;5043642;28;20092;-47
2021/11/06 00:27:38;;;;;;;7.20;2.88;;;8.50;99.90;;;;;;5029382;28;20045;-57
2021/11/06 00:30:06;;;;;;;8.65;2.88;;;8.50;99.90;;;;;;5022042;28;20120;-56
2021/11/06 00:32:33;;;;;;;5.70;3.03;;;8.50;99.90;;;;;;5045402;28;20040;-58
2021/11/06 00:34:59;;;;;;;6.30;2.78;;;8.50;99.90;;;;;;5040101;28;20071;-49
2021/11/06 00:37:27;;;;;;;10.10;3.03;;;8.50;99.90;;;;;;5070307;28;20064;-51
2021/11/06 00:39:53;;;;;;;7.93;3.22;;;8.50;99.90;;;;;;5041333;28;20048;-49
2021/11/06 00:42:20;;;;;;;6.72;3.45;;;8.50;99.90;;;;;;5035468;28;20046;-50
2021/11/06 00:44:46;;;;;;;6.10;2.83;;;8.50;99.90;;;;;;5057791;28;20053;-53
2021/11/06 00:47:12;;;;;;;7.40;3.20;;;8.50;99.90;;;;;;5047176;28;20090;-47
2021/11/06 00:49:39;;;;;;;6.40;2.88;;;8.50;99.90;;;;;;5046046;28;20120;-50
2021/11/06 00:52:07;;;;;;;7.38;3.10;;;8.50;99.90;;;;;;5045872;28;20406;-58
2021/11/06 00:54:33;;;;;;;6.63;2.75;;;8.50;99.90;;;;;;5045154;28;20044;-57
2021/11/06 00:56:59;;;;;;;7.53;2.88;;;8.50;99.90;;;;;;5044504;28;20071;-57
2021/11/06 00:59:25;;;;;;;7.35;3.60;;;8.50;99.90;;;;;;5056175;28;20044;-58
2021/11/06 01:01:51;;;;;;;8.57;3.15;;;8.60;99.90;;;;;;5041314;28;20126;-46
2021/11/06 01:04:18;;;;;;;7.88;3.47;;;8.50;99.90;;;;;;5044960;28;20456;-47
2021/11/06 01:06:45;;;;;;;9.90;3.08;;;8.60;99.90;;;;;;5045906;28;20044;-47
2021/11/06 01:09:11;;;;;;;11.80;3.50;;;8.60;99.90;;;;;;5046897;28;20059;-49
2021/11/06 01:11:38;;;;;;;9.55;2.75;;;8.60;99.90;;;;;;5043588;28;20116;-46
2021/11/06 01:14:04;;;;;;;7.50;2.97;;;8.60;99.90;;;;;;5044666;28;20049;-57
2021/11/06 01:16:31;;;;;;;6.53;3.08;;;8.60;99.90;;;;;;5043399;28;20103;-56
2021/11/06 01:18:57;;;;;;;5.68;2.70;;;8.60;99.90;;;;;;5045141;28;20048;-57
2021/11/06 01:21:23;;;;;;;7.25;3.05;;;8.50;99.90;;;;;;5045990;28;20055;-57
2021/11/06 01:23:49;;;;;;;10.63;3.17;;;8.50;99.90;;;;;;5042958;28;20134;-58
2021/11/06 01:26:15;;;;;;;7.53;3.25;;;8.60;99.90;;;;;;5044161;28;20044;-58
2021/11/06 01:28:41;;;;;;;10.30;3.53;;;8.50;99.90;;;;;;5045291;28;20041;-58
2021/11/06 01:31:07;;;;;;;10.43;3.15;;;8.50;99.90;;;;;;5042767;28;20041;-58
2021/11/06 01:33:34;;;;;;;8.02;3.10;;;8.50;99.90;;;;;;5043813;28;20503;-58
2021/11/06 01:36:00;;;;;;;9.40;3.53;;;8.50;99.90;;;;;;5043483;28;20400;-58
2021/11/06 01:38:26;;;;;;;9.10;3.42;;;8.40;99.90;;;;;;5043962;28;20658;-57
2021/11/06 01:40:52;;;;;;;8.80;3.53;;;8.40;99.90;;;;;;5045071;28;20128;-58
2021/11/06 01:43:18;;;;;;;7.90;3.53;;;8.40;99.90;;;;;;5044598;28;20552;-57
2021/11/06 01:45:44;;;;;;;7.10;4.00;;;8.40;99.90;;;;;;5042334;28;20041;-57
2021/11/06 01:48:10;;;;;;;11.77;4.30;;;8.30;99.90;;;;;;5041436;28;20163;-57
2021/11/06 01:50:36;;;;;;;9.55;3.75;;;8.40;99.90;;;;;;5041635;28;20183;-57
2021/11/06 01:53:02;;;;;;;7.85;4.07;;;8.40;99.90;;;;;;5042518;28;20126;-58
2021/11/06 01:55:28;;;;;;;11.00;4.15;;;8.40;99.90;;;;;;5033052;28;20045;-58
2021/11/06 01:57:55;;;;;;;11.07;4.25;;;8.40;99.90;;;;;;5042397;28;20067;-58
2021/11/06 02:00:24;;;;;;;6.93;4.55;;;8.30;99.90;;;;;;5043060;28;20092;-58
2021/11/06 02:02:51;;;;;;;10.65;4.78;;;8.30;99.90;;;;;;5038562;28;20037;-58
2021/11/06 02:05:17;;;;;;;11.23;5.90;;;8.30;99.90;;;;;;5043918;28;20052;-58
2021/11/06 02:07:44;;;;;;;11.35;5.20;;;8.30;99.90;;;;;;5043269;28;20045;-58
2021/11/06 02:10:11;;;;;;;14.45;5.05;;;8.30;99.90;;;;;;5042882;28;20037;-60
2021/11/06 02:12:39;;;;;;;10.55;4.65;;;8.30;99.90;;;;;;5040897;28;20033;-58
2021/11/06 02:15:07;;;;;;;8.77;4.70;;;8.30;99.90;;;;;;5030193;28;20127;-59
2021/11/06 02:17:33;;;;;;;8.48;4.55;;;8.30;99.90;;;;;;5058818;28;20041;-59
2021/11/06 02:19:59;;;;;;;10.35;5.22;;;8.30;99.90;;;;;;5044577;28;20049;-58
2021/11/06 02:22:29;;;;;;;10.05;5.07;;;8.40;99.90;;;;;;5040683;28;20147;-58
2021/11/06 02:24:55;;;;;;;12.07;5.90;;;8.40;99.90;;;;;;5039115;28;20045;-58
2021/11/06 02:27:21;;;;;;;11.10;4.97;;;8.40;99.90;;;;;;5052706;28;20045;-59
2021/11/06 02:29:48;;;;;;;10.45;5.13;;;8.40;99.90;;;;;;5044821;28;20056;-58
2021/11/06 02:32:14;;;;;;;12.73;5.40;;;8.40;99.90;;;;;;5030436;28;20085;-48
2021/11/06 02:34:40;;;;;;;8.52;5.20;;;8.40;99.90;;;;;;5050077;28;20041;-58
2021/11/06 02:37:06;;;;;;;10.60;4.85;;;8.40;99.90;;;;;;5050072;28;20060;-58
2021/11/06 02:39:33;;;;;;;11.40;6.20;;;8.40;99.90;;;;;;5043233;28;20053;-58
2021/11/06 02:42:01;;;;;;;17.08;6.30;;;8.40;99.90;;;;;;5031118;28;20111;-58
2021/11/06 02:44:27;;;;;;;9.68;5.90;;;8.50;99.90;;;;;;5045344;28;20044;-59
2021/11/06 02:46:54;;;;;;;9.63;5.75;;;8.40;99.90;;;;;;5042606;28;21587;-59
2021/11/06 02:49:20;;;;;;;10.07;6.18;;;8.50;99.90;;;;;;5043142;28;20068;-59
2021/11/06 02:51:46;;;;;;;12.02;6.28;;;8.50;99.90;;;;;;5041605;28;20045;-49
2021/11/06 02:54:12;;;;;;;9.75;5.28;;;8.50;99.90;;;;;;5031095;28;20041;-58
2021/11/06 02:56:38;;;;;;;16.80;7.85;;;8.50;99.90;;;;;;5043624;28;20049;-58
2021/11/06 02:59:04;;;;;;;12.80;6.95;;;8.50;99.90;;;;;;5043379;28;20542;-58
2021/11/06 03:01:30;;;;;;;11.40;6.25;;;8.50;99.90;;;;;;5040085;28;20132;-59
2021/11/06 03:03:56;;;;;;;15.75;7.63;;;8.50;99.90;;;;;;5042103;28;20127;-56
2021/11/06 03:06:23;;;;;;;13.23;7.40;;;8.50;99.90;;;;;;5044007;28;20114;-48
2021/11/06 03:08:49;;;;;;;13.93;8.68;;;8.60;99.90;;;;;;5044467;28;20041;-47
2021/11/06 03:11:15;;;;;;;11.70;7.85;;;8.60;99.90;;;;;;5040887;28;20084;-51
2021/11/06 03:13:44;;;;;;;12.80;8.55;;;8.60;99.90;;;;;;5044697;28;20049;-49
2021/11/06 03:16:10;;;;;;;14.95;8.55;;;8.60;99.90;;;;;;5029641;28;20124;-52
2021/11/06 03:18:37;;;;;;;14.73;9.52;;;8.60;99.90;;;;;;5044689;28;20045;-54
2021/11/06 03:21:03;;;;;;;10.82;8.15;;;8.70;99.90;;;;;;5061570;28;20041;-50
2021/11/06 03:23:30;;;;;;;13.80;9.18;;;8.70;99.90;;;;;;5045407;28;20045;-50
2021/11/06 03:25:56;;;;;;;18.52;8.90;;;8.70;99.90;;;;;;5063927;28;20044;-49
2021/11/06 03:28:22;;;;;;;14.45;9.13;;;8.70;99.90;;;;;;5037474;28;20707;-48
2021/11/06 03:30:50;;;;;;;14.25;9.75;;;8.70;99.90;;;;;;5044253;28;20122;-49
2021/11/06 03:33:16;;;;;;;15.23;10.40;;;8.70;99.90;;;;;;5045689;28;20053;-58
2021/11/06 03:35:42;;;;;;;13.38;11.13;;;8.70;99.90;;;;;;5046623;28;20417;-48
2021/11/06 03:38:08;;;;;;;14.85;11.15;;;8.70;99.90;;;;;;5044087;28;20151;-49
2021/11/06 03:40:34;;;;;;;15.55;12.23;;;8.70;99.90;;;;;;5045843;28;20048;-57
2021/11/06 03:43:01;;;;;;;16.33;11.45;;;8.70;99.90;;;;;;5062666;28;20125;-58
2021/11/06 03:45:27;;;;;;;16.55;11.60;;;8.70;99.90;;;;;;5048764;28;20041;-48
2021/11/06 03:47:53;;;;;;;18.52;12.43;;;8.70;99.90;;;;;;5044261;28;20417;-46
2021/11/06 03:50:19;;;;;;;16.67;11.90;;;8.70;99.90;;;;;;5038287;28;20569;-49
2021/11/06 03:52:45;;;;;;;19.90;12.07;;;8.70;99.90;;;;;;5045633;28;20499;-51
2021/11/06 03:55:12;;;;;;;14.52;12.25;;;8.70;99.90;;;;;;5046757;28;20052;-57
2021/11/06 03:57:38;;;;;;;17.15;12.93;;;8.60;99.90;;;;;;5063066;28;20120;-58
2021/11/06 04:00:09;;;;;;;22.90;14.27;;;8.60;99.90;;;;;;5047966;28;20049;-57
2021/11/06 04:02:35;;;;;;;17.52;14.55;;;8.60;99.90;;;;;;5036262;28;20050;-57
2021/11/06 04:05:02;;;;;;;22.33;13.95;;;8.70;99.90;;;;;;5046462;28;20077;-57
2021/11/06 04:07:28;;;;;;;21.50;15.93;;;8.60;99.90;;;;;;5048372;28;20037;-58
2021/11/06 04:09:54;;;;;;;19.25;16.08;;;8.60;99.90;;;;;;5045743;28;20084;-57
2021/11/06 04:12:20;;;;;;;22.52;16.75;;;8.60;99.90;;;;;;5044702;28;20084;-58
2021/11/06 04:14:46;;;;;;;18.23;16.08;;;8.60;99.90;;;;;;5057236;28;20496;-57
2021/11/06 04:17:12;;;;;;;21.08;16.60;;;8.60;99.90;;;;;;5034689;28;20084;-57
2021/11/06 04:19:38;;;;;;;23.60;18.33;;;8.60;99.90;;;;;;5046044;28;20041;-57
2021/11/06 04:22:05;;;;;;;24.33;19.48;;;8.60;99.90;;;;;;5044525;28;20087;-57
2021/11/06 04:24:31;;;;;;;23.13;18.77;;;8.60;99.90;;;;;;5044931;28;20052;-57
2021/11/06 04:26:57;;;;;;;24.75;18.92;;;8.60;99.90;;;;;;5033928;28;20116;-57
2021/11/06 04:29:23;;;;;;;23.92;19.35;;;8.70;99.90;;;;;;5044143;28;20045;-57
2021/11/06 04:31:49;;;;;;;25.33;21.02;;;8.70;99.90;;;;;;5042637;28;20048;-57
2021/11/06 04:34:16;;;;;;;22.20;19.75;;;8.70;99.90;;;;;;5041786;28;20037;-51
2021/11/06 04:36:42;;;;;;;26.65;21.45;;;8.70;99.90;;;;;;5043322;28;20044;-52
2021/11/06 04:39:08;;;;;;;31.63;23.00;;;8.70;99.90;;;;;;5029147;28;20080;-50
2021/11/06 04:41:34;;;;;;;25.15;22.30;;;8.70;99.90;;;;;;5060830;28;20129;-53
2021/11/06 04:44:00;;;;;;;29.83;23.98;;;8.70;99.90;;;;;;5046649;28;20486;-47
2021/11/06 04:46:26;;;;;;;25.85;22.05;;;8.70;99.90;;;;;;5044832;28;20051;-50
2021/11/06 04:48:52;;;;;;;28.00;23.48;;;8.70;99.90;;;;;;5044432;28;20048;-57
2021/11/06 04:51:18;;;;;;;27.85;24.75;;;8.70;99.90;;;;;;5047419;28;20049;-58
2021/11/06 04:53:45;;;;;;;31.05;24.75;;;8.80;99.90;;;;;;5043120;28;20038;-48
2021/11/06 04:56:11;;;;;;;30.88;25.33;;;8.70;99.90;;;;;;5043893;28;20123;-49
2021/11/06 04:58:37;;;;;;;30.83;26.30;;;8.70;99.90;;;;;;4993977;28;20103;-48
2021/11/06 05:01:03;;;;;;;28.70;25.75;;;8.80;99.90;;;;;;5044452;28;20087;-49
2021/11/06 05:03:29;;;;;;;34.20;26.90;;;8.80;99.90;;;;;;5046248;28;20048;-50
2021/11/06 05:05:55;;;;;;;29.98;25.67;;;8.80;99.90;;;;;;5045122;28;20099;-47
2021/11/06 05:08:21;;;;;;;30.50;26.75;;;8.80;99.90;;;;;;5041507;28;20049;-49
2021/11/06 05:10:47;;;;;;;30.85;27.05;;;8.80;99.90;;;;;;5027709;28;20388;-57
2021/11/06 05:13:14;;;;;;;32.72;28.08;;;8.80;99.90;;;;;;5043708;28;20047;-57
2021/11/06 05:15:40;;;;;;;32.35;27.67;;;8.80;99.90;;;;;;5044108;28;20048;-53
2021/11/06 05:18:06;;;;;;;33.83;29.65;;;8.80;99.90;;;;;;5038582;28;20552;-51
2021/11/06 05:20:33;;;;;;;36.50;28.58;;;8.80;99.90;;;;;;5039870;28;20040;-53
2021/11/06 05:22:59;;;;;;;39.70;29.25;;;8.80;99.90;;;;;;5042890;28;20045;-52
2021/11/06 05:25:25;;;;;;;35.33;30.38;;;8.80;99.90;;;;;;5040671;28;20091;-50
2021/11/06 05:27:51;;;;;;;37.75;30.45;;;8.80;99.90;;;;;;5042306;28;20457;-51
2021/11/06 05:30:18;;;;;;;32.55;29.13;;;8.80;99.90;;;;;;5022955;28;20044;-52
2021/11/06 05:32:44;;;;;;;33.55;29.88;;;8.80;99.90;;;;;;5041525;28;20041;-49
2021/11/06 05:35:12;;;;;;;32.92;29.17;;;8.80;99.90;;;;;;5046109;28;20033;-50
2021/11/06 05:37:38;;;;;;;36.70;28.98;;;8.80;99.90;;;;;;5055975;28;20056;-52
2021/11/06 05:40:07;;;;;;;33.47;29.70;;;8.80;99.90;;;;;;5044321;28;20118;-48
2021/11/06 05:42:33;;;;;;;42.67;29.13;;;8.80;99.90;;;;;;5040320;28;20108;-49
2021/11/06 05:45:01;;;;;;;35.28;29.40;;;8.80;99.90;;;;;;5043619;28;20404;-49
2021/11/06 05:47:27;;;;;;;34.83;30.92;;;8.80;99.90;;;;;;5036261;28;20091;-49
2021/11/06 05:49:53;;;;;;;34.53;30.02;;;8.70;99.90;;;;;;5033500;28;20041;-48
2021/11/06 05:52:19;;;;;;;34.00;30.00;;;8.80;99.90;;;;;;5036706;28;20153;-51
2021/11/06 05:54:45;;;;;;;33.97;30.05;;;8.80;99.90;;;;;;5034711;28;20480;-58
2021/11/06 05:57:11;;;;;;;33.17;29.63;;;8.70;99.90;;;;;;5037439;28;20111;-50
2021/11/06 05:59:37;;;;;;;43.28;32.47;;;8.70;99.90;;;;;;5040415;28;20124;-50
2021/11/06 06:02:04;;;;;;;36.35;30.48;;;8.70;99.90;;;;;;5037662;28;20053;-52
2021/11/06 06:04:30;;;;;;;36.85;31.73;;;8.70;99.90;;;;;;5035015;28;20048;-50
2021/11/06 06:06:56;;;;;;;36.55;32.53;;;8.70;99.90;;;;;;5037179;28;20040;-51
2021/11/06 06:09:22;;;;;;;33.70;30.10;;;8.60;99.90;;;;;;5029533;28;20061;-53
2021/11/06 06:11:48;;;;;;;37.47;30.70;;;8.60;99.90;;;;;;5038464;28;20507;-58
2021/11/06 06:14:14;;;;;;;38.80;31.27;;;8.60;99.90;;;;;;5034355;28;20167;-52
2021/11/06 06:16:40;;;;;;;33.72;30.20;;;8.60;99.90;;;;;;5037459;28;20085;-51
2021/11/06 06:19:06;;;;;;;36.13;30.77;;;8.60;99.90;;;;;;5043842;28;20040;-51
2021/11/06 06:21:32;;;;;;;38.75;31.10;;;8.60;99.90;;;;;;5039420;28;20423;-59
2021/11/06 06:23:58;;;;;;;34.70;30.83;;;8.60;99.90;;;;;;5039221;28;20044;-58
2021/11/06 06:26:24;;;;;;;35.83;31.17;;;8.60;99.90;;;;;;5037786;28;20041;-58
2021/11/06 06:28:50;;;;;;;37.97;31.70;;;8.70;99.90;;;;;;5025485;28;20037;-58
2021/11/06 06:31:16;;;;;;;35.08;29.25;;;8.70;99.90;;;;;;5035770;28;20033;-58
2021/11/06 06:33:43;;;;;;;34.72;30.70;;;8.60;99.90;;;;;;5035226;28;20041;-50
2021/11/06 06:36:09;;;;;;;36.35;29.13;;;8.70;99.90;;;;;;5038669;28;20037;-52
2021/11/06 06:38:35;;;;;;;34.03;30.33;;;8.70;99.90;;;;;;5038417;28;20045;-58
2021/11/06 06:41:02;;;;;;;33.72;28.77;;;8.70;99.90;;;;;;5035188;28;20131;-58
2021/11/06 06:43:28;;;;;;;36.90;29.67;;;8.70;99.90;;;;;;5035361;28;20086;-47
2021/11/06 06:45:54;;;;;;;35.88;30.70;;;8.70;99.90;;;;;;5034101;28;20594;-58
2021/11/06 06:48:20;;;;;;;33.60;29.13;;;8.70;99.90;;;;;;5036569;28;20099;-51
2021/11/06 06:50:49;;;;;;;35.22;30.10;;;8.70;99.90;;;;;;5040056;28;20037;-57
2021/11/06 06:53:17;;;;;;;34.45;30.27;;;8.70;99.90;;;;;;5037785;28;20411;-58
2021/11/06 06:55:44;;;;;;;38.33;29.50;;;8.60;99.90;;;;;;5037882;28;20488;-49
2021/11/06 06:58:11;;;;;;;37.42;30.67;;;8.70;99.90;;;;;;5035077;28;20057;-59
2021/11/06 07:00:37;;;;;;;35.55;30.73;;;8.70;99.90;;;;;;5032791;28;20041;-59
2021/11/06 07:03:03;;;;;;;37.33;29.27;;;8.70;99.90;;;;;;5040290;28;20451;-59
2021/11/06 07:05:30;;;;;;;35.10;29.90;;;8.70;99.90;;;;;;5029902;28;20042;-52
2021/11/06 07:07:57;;;;;;;34.80;29.30;;;8.70;99.90;;;;;;5034319;28;20110;-53
2021/11/06 07:10:24;;;;;;;38.35;29.45;;;8.70;99.90;;;;;;5032325;28;20041;-53
2021/11/06 07:12:51;;;;;;;37.83;30.58;;;8.80;99.90;;;;;;5040613;28;20129;-49
2021/11/06 07:15:17;;;;;;;38.92;30.88;;;8.80;99.90;;;;;;5053145;28;20420;-51
2021/11/06 07:17:43;;;;;;;35.35;29.00;;;8.80;99.90;;;;;;5039306;28;20048;-46
2021/11/06 07:20:10;;;;;;;37.05;29.25;;;8.80;99.90;;;;;;5032692;28;20069;-51
2021/11/06 07:22:37;;;;;;;40.80;30.58;;;8.80;99.90;;;;;;5031663;28;20132;-59
2021/11/06 07:25:07;;;;;;;35.65;30.30;;;8.80;99.90;;;;;;5025033;28;20041;-56
2021/11/06 07:27:34;;;;;;;38.33;31.60;;;8.80;99.90;;;;;;5032781;28;20099;-59
2021/11/06 07:30:00;;;;;;;34.28;30.55;;;8.80;99.90;;;;;;5036254;28;20034;-59
2021/11/06 07:32:26;;;;;;;35.13;29.20;;;8.80;99.90;;;;;;5024528;28;20061;-58
2021/11/06 07:34:52;;;;;;;37.20;30.63;;;8.80;99.90;;;;;;5036257;28;20048;-59
2021/11/06 07:37:18;;;;;;;32.50;29.00;;;8.90;99.90;;;;;;5038410;28;20134;-59
2021/11/06 07:39:44;;;;;;;37.05;28.38;;;8.80;99.90;;;;;;5016430;28;20037;-59
2021/11/06 07:42:10;;;;;;;33.03;29.13;;;8.90;99.90;;;;;;5031651;28;20042;-57
2021/11/06 07:44:37;;;;;;;33.63;27.80;;;8.90;99.90;;;;;;5034844;28;20144;-57
2021/11/06 07:47:03;;;;;;;35.03;28.92;;;8.80;99.90;;;;;;5034322;28;20076;-57
2021/11/06 07:49:29;;;;;;;34.33;28.30;;;8.90;99.90;;;;;;5047952;28;20070;-58
2021/11/06 07:51:59;;;;;;;32.40;26.90;;;8.90;99.90;;;;;;5036273;28;20055;-58
2021/11/06 07:54:27;;;;;;;33.53;29.85;;;8.90;99.90;;;;;;5033497;28;20167;-57
2021/11/06 07:56:53;;;;;;;33.47;27.80;;;8.90;99.90;;;;;;5058138;28;20445;-51
2021/11/06 07:59:19;;;;;;;38.92;28.20;;;8.90;99.90;;;;;;5050229;28;20140;-49
2021/11/06 08:01:46;;;;;;;32.03;28.58;;;8.90;99.90;;;;;;5030355;28;20041;-50
2021/11/06 08:04:12;;;;;;;31.67;28.00;;;8.90;99.90;;;;;;5031356;28;20117;-49
2021/11/06 08:06:38;;;;;;;36.72;28.90;;;8.90;99.90;;;;;;5031288;28;20042;-48
2021/11/06 08:09:05;;;;;;;35.15;28.70;;;8.90;99.90;;;;;;5034504;28;20041;-52
2021/11/06 08:11:31;;;;;;;33.15;28.70;;;8.90;99.90;;;;;;5038614;28;20126;-50
2021/11/06 08:13:58;;;;;;;31.63;28.20;;;8.90;99.90;;;;;;5036020;28;20052;-51
2021/11/06 08:16:24;;;;;;;37.42;27.73;;;8.90;99.90;;;;;;5018591;28;20178;-52
2021/11/06 08:18:50;;;;;;;36.33;27.92;;;8.90;99.90;;;;;;5041571;28;20045;-48
2021/11/06 08:21:17;;;;;;;36.22;27.73;;;8.90;99.90;;;;;;5045692;28;20411;-50
2021/11/06 08:23:44;;;;;;;39.00;29.13;;;8.90;99.90;;;;;;5043851;28;20052;-49
2021/11/06 08:26:10;;;;;;;34.25;27.48;;;8.90;99.90;;;;;;5031741;28;20116;-58
2021/11/06 08:28:37;;;;;;;36.05;27.63;;;9.00;99.90;;;;;;5015554;28;20041;-58
2021/11/06 08:31:03;;;;;;;33.75;28.33;;;9.00;99.90;;;;;;5034885;28;20143;-58
2021/11/06 08:33:31;;;;;;;36.03;28.63;;;9.00;99.90;;;;;;5042315;28;20053;-58
2021/11/06 08:35:59;;;;;;;37.58;28.42;;;9.00;99.90;;;;;;5057085;28;20048;-52
2021/11/06 08:38:29;;;;;;;37.53;28.48;;;9.00;99.90;;;;;;5019111;28;20064;-52
2021/11/06 08:40:55;;;;;;;35.53;27.98;;;9.10;99.90;;;;;;5043469;28;20565;-52
2021/11/06 08:43:21;;;;;;;37.60;28.75;;;9.10;99.90;;;;;;5034797;28;20087;-51
2021/11/06 08:45:47;;;;;;;38.28;27.83;;;9.10;99.90;;;;;;5036897;28;20084;-46
2021/11/06 08:48:14;;;;;;;36.17;27.55;;;9.10;99.90;;;;;;5032369;28;20091;-48
2021/11/06 08:50:40;;;;;;;42.08;29.55;;;9.20;99.90;;;;;;5039831;28;20392;-51
2021/11/06 08:53:07;;;;;;;38.22;27.63;;;9.20;99.90;;;;;;5010130;28;20045;-51
2021/11/06 08:55:34;;;;;;;37.60;27.70;;;9.30;99.90;;;;;;5018943;28;20045;-52
2021/11/06 08:58:01;;;;;;;35.30;28.30;;;9.30;99.90;;;;;;5035481;28;20041;-51
2021/11/06 09:00:35;;;;;;;35.72;27.25;;;9.30;99.90;;;;;;5035181;28;20402;-50
2021/11/06 09:03:06;;;;;;;37.38;27.20;;;9.30;99.90;;;;;;5037106;28;20049;-49
2021/11/06 09:05:34;;;;;;;38.13;29.15;;;9.30;99.90;;;;;;5038305;28;20491;-47
2021/11/06 09:08:00;;;;;;;38.13;29.17;;;9.30;99.90;;;;;;5042474;28;20049;-47
2021/11/06 09:10:27;;;;;;;35.13;27.48;;;9.30;99.90;;;;;;5030457;28;20054;-48
2021/11/06 09:12:53;;;;;;;39.83;28.65;;;9.40;99.90;;;;;;5031525;28;20065;-60
2021/11/06 09:15:20;;;;;;;32.67;25.15;;;9.40;99.90;;;;;;5034727;28;20056;-58
2021/11/06 09:17:47;;;;;;;39.40;27.50;;;9.40;99.90;;;;;;5034173;28;20038;-57
2021/11/06 09:20:13;;;;;;;36.72;27.25;;;9.40;99.90;;;;;;5041550;28;20504;-57
2021/11/06 09:22:40;;;;;;;34.00;26.33;;;9.40;99.90;;;;;;5041095;28;20040;-57
2021/11/06 09:25:08;;;;;;;36.97;27.20;;;9.50;99.90;;;;;;5030947;28;20624;-59
2021/11/06 09:27:35;;;;;;;31.88;25.77;;;9.50;99.90;;;;;;5037848;28;20037;-58
2021/11/06 09:30:06;;;;;;;33.03;25.77;;;9.60;99.90;;;;;;5043914;28;20072;-57
2021/11/06 09:32:33;;;;;;;35.20;25.63;;;9.60;99.90;;;;;;5036667;28;20094;-57
2021/11/06 09:34:59;;;;;;;32.80;26.58;;;9.70;99.90;;;;;;5034664;28;20049;-57
2021/11/06 09:37:25;;;;;;;33.60;25.50;;;9.80;99.90;;;;;;5037378;28;20061;-58
2021/11/06 09:39:53;;;;;;;35.28;25.75;;;9.90;99.90;;;;;;5019648;28;20111;-58
2021/11/06 09:42:20;;;;;;;31.67;24.58;;;10.00;99.90;;;;;;5035808;28;20053;-58
2021/11/06 09:44:50;;;;;;;29.73;23.77;;;10.20;99.90;;;;;;5018121;28;20131;-57
2021/11/06 09:47:17;;;;;;;30.80;22.95;;;10.20;99.90;;;;;;5037884;28;20056;-57
2021/11/06 09:49:43;;;;;;;35.17;24.33;;;10.20;99.90;;;;;;5035425;28;20041;-58
2021/11/06 09:52:11;;;;;;;31.45;23.70;;;10.30;99.90;;;;;;5032966;28;20052;-58
2021/11/06 09:54:41;;;;;;;28.27;22.95;;;10.30;99.90;;;;;;5038843;28;20041;-58
2021/11/06 09:57:08;;;;;;;34.45;23.13;;;10.30;99.90;;;;;;5049979;28;20049;-58
2021/11/06 09:59:34;;;;;;;31.15;23.30;;;10.40;99.90;;;;;;5035195;28;20452;-58
2021/11/06 10:02:01;;;;;;;27.85;21.45;;;10.40;99.90;;;;;;5035149;28;20047;-59
2021/11/06 10:04:29;;;;;;;30.92;20.77;;;10.40;99.90;;;;;;5030781;28;20045;-58
2021/11/06 10:06:59;;;;;;;30.98;22.02;;;10.40;99.90;;;;;;5031494;28;20438;-58
2021/11/06 10:09:25;;;;;;;31.65;22.40;;;10.40;99.90;;;;;;5031610;28;20049;-58
2021/11/06 10:11:53;;;;;;;30.90;21.92;;;10.40;99.90;;;;;;5025079;28;20045;-58
2021/11/06 10:14:25;;;;;;;28.20;20.63;;;10.40;99.90;;;;;;5031038;28;20045;-58
2021/11/06 10:16:58;;;;;;;29.27;20.52;;;10.40;99.90;;;;;;5024507;28;20037;-58
2021/11/06 10:19:32;;;;;;;30.60;20.88;;;10.40;99.90;;;;;;5039191;28;20464;-58
2021/11/06 10:22:09;;;;;;;29.52;21.58;;;10.50;99.90;;;;;;5028137;28;20064;-59
2021/11/06 10:24:47;;;;;;;32.33;21.70;;;10.40;99.90;;;;;;5028964;28;20039;-58
2021/11/06 10:27:22;;;;;;;28.85;21.77;;;10.40;99.90;;;;;;5030669;28;20363;-47
2021/11/06 10:30:11;;;;;;;30.77;21.45;;;10.40;99.90;;;;;;5030726;28;20048;-58
2021/11/06 10:32:40;;;;;;;28.35;20.13;;;10.40;99.90;;;;;;5030813;28;20037;-58
2021/11/06 10:35:16;;;;;;;32.35;21.80;;;10.40;99.90;;;;;;5042561;28;20045;-58
2021/11/06 10:37:44;;;;;;;23.38;19.30;;;10.40;99.90;;;;;;5034928;28;20526;-58
2021/11/06 10:40:11;;;;;;;30.80;21.55;;;10.40;99.90;;;;;;5036325;28;20053;-58
2021/11/06 10:42:51;;;;;;;24.92;19.98;;;10.40;99.90;;;;;;5024604;28;20484;-58
2021/11/06 10:45:21;;;;;;;30.00;21.25;;;10.40;99.90;;;;;;5046973;28;20166;-49
2021/11/06 10:47:57;;;;;;;31.23;20.50;;;10.40;99.90;;;;;;5033606;28;20126;-49
2021/11/06 10:50:57;;;;;;;31.83;21.38;;;10.40;99.90;;;;;;5034119;28;20046;-50
2021/11/06 10:53:42;;;;;;;29.63;20.60;;;10.40;99.90;;;;;;5032710;28;20052;-50
2021/11/06 10:56:14;;;;;;;24.90;19.98;;;10.40;99.90;;;;;;5033385;28;20045;-49
2021/11/06 10:58:45;;;;;;;27.55;20.85;;;10.40;99.90;;;;;;5052117;28;20080;-48
2021/11/06 11:01:16;;;;;;;28.88;19.63;;;10.50;99.90;;;;;;5043185;28;20488;-49
2021/11/06 11:03:44;;;;;;;31.55;21.20;;;10.50;99.90;;;;;;5052402;28;20045;-49
2021/11/06 11:06:13;;;;;;;27.02;19.67;;;10.40;99.90;;;;;;5042740;28;20037;-49
2021/11/06 11:08:46;;;;;;;29.70;20.13;;;10.40;99.90;;;;;;5049130;28;20280;-47
2021/11/06 11:11:14;;;;;;;28.90;19.48;;;10.50;99.90;;;;;;5050235;28;20080;-50
2021/11/06 11:13:52;;;;;;;29.17;20.23;;;10.50;99.90;;;;;;5046046;28;20052;-59
2021/11/06 11:16:19;;;;;;;29.75;20.10;;;10.50;99.90;;;;;;5029487;28;20041;-59
2021/11/06 11:18:51;;;;;;;29.90;18.92;;;10.40;99.90;;;;;;5041760;28;20500;-58
2021/11/06 11:21:26;;;;;;;26.92;19.10;;;10.50;99.90;;;;;;5028961;28;20055;-59
2021/11/06 11:23:58;;;;;;;30.38;19.60;;;10.50;99.90;;;;;;5029140;28;20042;-58
2021/11/06 11:26:26;;;;;;;;;;;10.50;99.90;;;;;;5041579;28;20416;-58
2021/11/06 11:28:54;;;;;;;28.65;18.20;;;10.50;99.90;;;;;;5031208;28;19924;-52
2021/11/06 11:31:26;;;;;;;24.90;18.05;;;10.60;99.90;;;;;;5029985;28;20042;-49
2021/11/06 11:33:53;;;;;;;26.42;18.30;;;10.60;99.90;;;;;;5028804;28;20065;-59
2021/11/06 11:36:23;;;;;;;23.95;17.50;;;10.60;99.90;;;;;;5029115;28;20086;-59
2021/11/06 11:38:50;;;;;;;21.95;16.23;;;10.70;99.90;;;;;;5036293;28;20080;-50
2021/11/06 11:41:31;;;;;;;22.40;16.67;;;10.70;99.90;;;;;;5042237;28;20041;-48
2021/11/06 11:44:25;;;;;;;25.97;17.63;;;10.70;99.90;;;;;;5035709;28;20140;-48
2021/11/06 11:47:04;;;;;;;25.70;16.83;;;10.70;99.90;;;;;;5042961;28;20400;-48
2021/11/06 11:49:33;;;;;;;25.48;16.27;;;10.80;99.90;;;;;;5038931;28;20107;-49
2021/11/06 11:52:26;;;;;;;22.48;16.15;;;10.80;99.90;;;;;;5009885;28;20139;-49
2021/11/06 11:55:03;;;;;;;20.88;15.15;;;10.90;99.90;;;;;;5041079;28;20859;-52
2021/11/06 11:57:31;;;;;;;21.10;15.98;;;10.90;99.90;;;;;;5064517;28;20051;-61
2021/11/06 11:59:57;;;;;;;20.52;14.68;;;10.90;99.90;;;;;;5046503;28;20037;-59
2021/11/06 12:02:30;;;;;;;23.65;15.18;;;10.90;99.90;;;;;;5036037;28;20048;-60
2021/11/06 12:05:16;;;;;;;22.15;14.95;;;10.90;99.90;;;;;;5043291;28;20456;-50
2021/11/06 12:07:45;;;;;;;22.25;15.48;;;10.90;99.90;;;;;;5039928;28;20407;-52
2021/11/06 12:10:29;;;;;;;24.73;14.93;;;10.90;99.90;;;;;;5035864;28;20051;-50
2021/11/06 12:12:57;;;;;;;21.98;14.52;;;10.90;99.90;;;;;;5034341;28;20191;-50
2021/11/06 12:15:55;;;;;;;24.45;15.27;;;10.90;99.90;;;;;;5042872;28;20124;-52
2021/11/06 12:18:32;;;;;;;24.90;14.85;;;10.90;99.90;;;;;;5043868;28;20036;-50
2021/11/06 12:21:18;;;;;;;21.30;14.07;;;10.90;99.90;;;;;;5036032;28;20051;-53
2021/11/06 12:23:49;;;;;;;20.40;14.02;;;10.90;99.90;;;;;;5050204;28;20032;-59
2021/11/06 12:26:18;;;;;;;20.75;14.48;;;10.90;99.90;;;;;;5052246;28;20088;-60
2021/11/06 12:28:46;;;;;;;19.45;13.30;;;10.90;99.90;;;;;;5034791;28;20060;-59
2021/11/06 12:31:27;;;;;;;20.50;14.45;;;10.90;99.90;;;;;;5054108;28;20551;-60
2021/11/06 12:33:53;;;;;;;20.67;13.45;;;10.90;99.90;;;;;;5042077;28;20051;-59
2021/11/06 12:36:21;;;;;;;18.30;14.05;;;11.00;99.90;;;;;;5038494;28;20068;-58
2021/11/06 12:38:48;;;;;;;20.60;14.10;;;11.00;99.90;;;;;;5050271;28;20118;-58
2021/11/06 12:41:24;;;;;;;22.00;14.30;;;11.00;99.90;;;;;;5038714;28;20487;-58